sensor_id;sensor_type;location;lat;lon;timestamp;pressure;altitude;pressure_sealevel;temperature;humidity
6853;BME280;3465;42.144;24.722;2023-02-10T00:02:23;142018.16;;;-3.71;88.83
6853;BME280;3465;42.144;24.722;2023-02-10T00:04:48;142068.78;;;-3.51;88.14
6853;BME280;3465;42.144;24.722;2023-02-10T00:07:16;142050.28;;;-3.58;87.78
6853;BME280;3465;42.144;24.722;2023-02-10T00:09:42;142036.66;;;-3.64;87.66
6853;BME280;3465;42.144;24.722;2023-02-10T00:12:07;142034.22;;;-3.65;87.75
6853;BME280;3465;42.144;24.722;2023-02-10T00:14:36;142021.84;;;-3.70;88.74
6853;BME280;3465;42.144;24.722;2023-02-10T00:17:01;142010.75;;;-3.74;89.05
6853;BME280;3465;42.144;24.722;2023-02-10T00:19:27;142016.91;;;-3.72;89.21
6853;BME280;3465;42.144;24.722;2023-02-10T00:21:53;142010.75;;;-3.74;89.85
6853;BME280;3465;42.144;24.722;2023-02-10T00:24:20;141982.31;;;-3.86;90.54
6853;BME280;3465;42.144;24.722;2023-02-10T00:26:45;142003.34;;;-3.77;91.50
6853;BME280;3465;42.144;24.722;2023-02-10T00:29:11;141987.28;;;-3.84;91.70
6853;BME280;3465;42.144;24.722;2023-02-10T00:31:37;141990.97;;;-3.82;92.16
6853;BME280;3465;42.144;24.722;2023-02-10T00:34:02;141895.88;;;-4.21;91.81
6853;BME280;3465;42.144;24.722;2023-02-10T00:36:28;141960.06;;;-3.95;91.66
6853;BME280;3465;42.144;24.722;2023-02-10T00:38:53;141957.59;;;-3.96;91.55
6853;BME280;3465;42.144;24.722;2023-02-10T00:41:20;141939.09;;;-4.03;92.49
6853;BME280;3465;42.144;24.722;2023-02-10T00:43:46;141921.78;;;-4.10;92.29
6853;BME280;3465;42.144;24.722;2023-02-10T00:46:13;141931.69;;;-4.06;92.60
6853;BME280;3465;42.144;24.722;2023-02-10T00:48:39;141930.44;;;-4.07;92.10
6853;BME280;3465;42.144;24.722;2023-02-10T00:51:05;141923.03;;;-4.10;92.90
6853;BME280;3465;42.144;24.722;2023-02-10T00:53:31;141909.44;;;-4.15;92.53
6853;BME280;3465;42.144;24.722;2023-02-10T00:55:57;141902.03;;;-4.18;92.83
6853;BME280;3465;42.144;24.722;2023-02-10T00:58:23;141856.38;;;-4.37;94.10
6853;BME280;3465;42.144;24.722;2023-02-10T01:00:48;141867.47;;;-4.32;94.41
6853;BME280;3465;42.144;24.722;2023-02-10T01:03:14;141894.63;;;-4.21;94.81
6853;BME280;3465;42.144;24.722;2023-02-10T01:05:40;141884.78;;;-4.25;95.24
6853;BME280;3465;42.144;24.722;2023-02-10T01:08:06;141863.75;;;-4.34;95.32
6853;BME280;3465;42.144;24.722;2023-02-10T01:10:32;141857.56;;;-4.37;95.49
6853;BME280;3465;42.144;24.722;2023-02-10T01:13:00;141856.38;;;-4.37;95.68
6853;BME280;3465;42.144;24.722;2023-02-10T01:15:26;141852.66;;;-4.38;96.33
6853;BME280;3465;42.144;24.722;2023-02-10T01:17:52;141858.81;;;-4.36;96.04
6853;BME280;3465;42.144;24.722;2023-02-10T01:20:17;141862.50;;;-4.34;96.16
6853;BME280;3465;42.144;24.722;2023-02-10T01:22:43;141846.47;;;-4.41;96.36
6853;BME280;3465;42.144;24.722;2023-02-10T01:25:08;141847.72;;;-4.41;96.53
6853;BME280;3465;42.144;24.722;2023-02-10T01:27:34;141832.91;;;-4.47;97.13
6853;BME280;3465;42.144;24.722;2023-02-10T01:29:59;141836.59;;;-4.45;97.25
6853;BME280;3465;42.144;24.722;2023-02-10T01:32:25;141829.22;;;-4.48;97.44
6853;BME280;3465;42.144;24.722;2023-02-10T01:34:50;141845.25;;;-4.42;96.88
6853;BME280;3465;42.144;24.722;2023-02-10T01:37:15;141831.66;;;-4.47;97.19
6853;BME280;3465;42.144;24.722;2023-02-10T01:39:41;141844.00;;;-4.42;96.35
6853;BME280;3465;42.144;24.722;2023-02-10T01:42:11;141792.16;;;-4.63;96.42
6853;BME280;3465;42.144;24.722;2023-02-10T01:47:02;141788.47;;;-4.65;97.91
6853;BME280;3465;42.144;24.722;2023-02-10T01:49:31;141788.47;;;-4.65;97.79
6853;BME280;3465;42.144;24.722;2023-02-10T01:52:02;141795.84;;;-4.62;97.94
6853;BME280;3465;42.144;24.722;2023-02-10T01:54:33;141783.50;;;-4.67;98.21
6853;BME280;3465;42.144;24.722;2023-02-10T01:57:01;141746.53;;;-4.82;98.97
6853;BME280;3465;42.144;24.722;2023-02-10T01:59:30;141745.28;;;-4.82;99.46
6853;BME280;3465;42.144;24.722;2023-02-10T02:01:57;141684.78;;;-5.07;100.00
6853;BME280;3465;42.144;24.722;2023-02-10T02:04:24;141714.44;;;-4.95;100.00
6853;BME280;3465;42.144;24.722;2023-02-10T02:06:49;141727.97;;;-4.89;100.00
6853;BME280;3465;42.144;24.722;2023-02-10T02:09:15;141726.78;;;-4.90;99.92
6853;BME280;3465;42.144;24.722;2023-02-10T02:12:01;141727.97;;;-4.89;99.80
6853;BME280;3465;42.144;24.722;2023-02-10T02:14:35;141702.09;;;-5.00;100.00
6853;BME280;3465;42.144;24.722;2023-02-10T02:17:42;141686.03;;;-5.06;100.00
6853;BME280;3465;42.144;24.722;2023-02-10T02:29:22;141694.69;;;-5.03;100.00
6853;BME280;3465;42.144;24.722;2023-02-10T02:34:35;141687.28;;;-5.06;100.00
6853;BME280;3465;42.144;24.722;2023-02-10T02:37:15;141702.09;;;-5.00;100.00
6853;BME280;3465;42.144;24.722;2023-02-10T02:39:43;141667.56;;;-5.14;100.00
6853;BME280;3465;42.144;24.722;2023-02-10T02:42:16;141653.97;;;-5.19;100.00
6853;BME280;3465;42.144;24.722;2023-02-10T02:44:48;141628.06;;;-5.30;100.00
6853;BME280;3465;42.144;24.722;2023-02-10T02:47:30;141623.13;;;-5.32;100.00
6853;BME280;3465;42.144;24.722;2023-02-10T02:50:38;141608.34;;;-5.38;100.00
6853;BME280;3465;42.144;24.722;2023-02-10T02:53:21;141576.28;;;-5.51;100.00
6853;BME280;3465;42.144;24.722;2023-02-10T02:59:17;141593.50;;;-5.44;100.00
6853;BME280;3465;42.144;24.722;2023-02-10T03:02:21;141614.50;;;-5.35;100.00
6853;BME280;3465;42.144;24.722;2023-02-10T03:04:17;141551.59;;;-5.61;100.00
6853;BME280;3465;42.144;24.722;2023-02-10T03:06:42;141591.06;;;-5.45;100.00
6853;BME280;3465;42.144;24.722;2023-02-10T03:09:08;141551.59;;;-5.61;100.00
6853;BME280;3465;42.144;24.722;2023-02-10T03:11:34;141561.44;;;-5.57;100.00
6853;BME280;3465;42.144;24.722;2023-02-10T03:14:00;141551.59;;;-5.61;100.00
6853;BME280;3465;42.144;24.722;2023-02-10T03:16:25;141534.31;;;-5.68;100.00
6853;BME280;3465;42.144;24.722;2023-02-10T03:18:51;141530.63;;;-5.69;100.00
6853;BME280;3465;42.144;24.722;2023-02-10T03:21:17;141556.53;;;-5.59;100.00
6853;BME280;3465;42.144;24.722;2023-02-10T03:23:42;141561.44;;;-5.57;100.00
6853;BME280;3465;42.144;24.722;2023-02-10T03:26:08;141547.91;;;-5.62;100.00
6853;BME280;3465;42.144;24.722;2023-02-10T03:28:33;141517.09;;;-5.75;100.00
6853;BME280;3465;42.144;24.722;2023-02-10T03:31:02;141514.59;;;-5.76;100.00
6853;BME280;3465;42.144;24.722;2023-02-10T03:33:27;141521.97;;;-5.73;100.00
6853;BME280;3465;42.144;24.722;2023-02-10T03:35:53;141521.97;;;-5.73;100.00
6853;BME280;3465;42.144;24.722;2023-02-10T03:38:18;141513.41;;;-5.76;100.00
6853;BME280;3465;42.144;24.722;2023-02-10T03:40:44;141526.94;;;-5.71;100.00
6853;BME280;3465;42.144;24.722;2023-02-10T03:43:09;141518.28;;;-5.74;100.00
6853;BME280;3465;42.144;24.722;2023-02-10T03:45:34;141519.53;;;-5.74;100.00
6853;BME280;3465;42.144;24.722;2023-02-10T03:48:00;141504.75;;;-5.80;100.00
6853;BME280;3465;42.144;24.722;2023-02-10T03:50:26;141518.28;;;-5.74;100.00
6853;BME280;3465;42.144;24.722;2023-02-10T03:52:51;141504.75;;;-5.80;100.00
6853;BME280;3465;42.144;24.722;2023-02-10T03:55:17;141490.03;;;-5.86;100.00
6853;BME280;3465;42.144;24.722;2023-02-10T03:57:44;141487.53;;;-5.87;100.00
6853;BME280;3465;42.144;24.722;2023-02-10T04:00:11;141459.16;;;-5.99;100.00
6853;BME280;3465;42.144;24.722;2023-02-10T04:02:37;141490.03;;;-5.86;100.00
6853;BME280;3465;42.144;24.722;2023-02-10T04:05:03;141451.78;;;-6.02;100.00
6853;BME280;3465;42.144;24.722;2023-02-10T04:07:28;141497.41;;;-5.83;100.00
6853;BME280;3465;42.144;24.722;2023-02-10T04:09:53;141470.28;;;-5.94;100.00
6853;BME280;3465;42.144;24.722;2023-02-10T04:12:19;141466.56;;;-5.96;100.00
6853;BME280;3465;42.144;24.722;2023-02-10T04:14:44;141460.41;;;-5.98;100.00
6853;BME280;3465;42.144;24.722;2023-02-10T04:17:09;141445.63;;;-6.04;100.00
6853;BME280;3465;42.144;24.722;2023-02-10T04:19:35;141443.13;;;-6.05;100.00
6853;BME280;3465;42.144;24.722;2023-02-10T04:22:00;141425.91;;;-6.12;100.00
6853;BME280;3465;42.144;24.722;2023-02-10T04:24:26;141417.28;;;-6.16;100.00
6853;BME280;3465;42.144;24.722;2023-02-10T04:26:51;141391.44;;;-6.26;100.00
6853;BME280;3465;42.144;24.722;2023-02-10T04:29:16;141416.03;;;-6.16;100.00
6853;BME280;3465;42.144;24.722;2023-02-10T04:31:42;141396.31;;;-6.24;100.00
6853;BME280;3465;42.144;24.722;2023-02-10T04:34:07;141403.69;;;-6.21;100.00
6853;BME280;3465;42.144;24.722;2023-02-10T04:36:33;141409.91;;;-6.19;100.00
6853;BME280;3465;42.144;24.722;2023-02-10T04:38:58;141401.25;;;-6.22;100.00
6853;BME280;3465;42.144;24.722;2023-02-10T04:41:23;141392.63;;;-6.26;100.00
6853;BME280;3465;42.144;24.722;2023-02-10T04:43:49;141384.00;;;-6.29;100.00
6853;BME280;3465;42.144;24.722;2023-02-10T04:46:14;141402.50;;;-6.22;100.00
6853;BME280;3465;42.144;24.722;2023-02-10T04:48:40;141398.81;;;-6.23;100.00
6853;BME280;3465;42.144;24.722;2023-02-10T04:51:10;141390.19;;;-6.27;100.00
6853;BME280;3465;42.144;24.722;2023-02-10T04:53:37;141360.56;;;-6.39;100.00
6853;BME280;3465;42.144;24.722;2023-02-10T04:56:03;141388.94;;;-6.27;100.00
6853;BME280;3465;42.144;24.722;2023-02-10T04:58:30;141385.22;;;-6.29;100.00
6853;BME280;3465;42.144;24.722;2023-02-10T05:00:55;141374.16;;;-6.33;100.00
6853;BME280;3465;42.144;24.722;2023-02-10T05:03:21;141371.72;;;-6.34;100.00
6853;BME280;3465;42.144;24.722;2023-02-10T05:05:47;141381.53;;;-6.30;100.00
6853;BME280;3465;42.144;24.722;2023-02-10T05:08:13;141365.53;;;-6.37;100.00
6853;BME280;3465;42.144;24.722;2023-02-10T05:10:38;141344.56;;;-6.45;100.00
6853;BME280;3465;42.144;24.722;2023-02-10T05:13:04;141360.56;;;-6.39;100.00
6853;BME280;3465;42.144;24.722;2023-02-10T05:15:30;141398.81;;;-6.23;100.00
6853;BME280;3465;42.144;24.722;2023-02-10T05:17:55;141395.13;;;-6.25;100.00
6853;BME280;3465;42.144;24.722;2023-02-10T05:20:21;141395.13;;;-6.25;100.00
6853;BME280;3465;42.144;24.722;2023-02-10T05:22:46;141408.66;;;-6.19;100.00
6853;BME280;3465;42.144;24.722;2023-02-10T05:25:12;141413.59;;;-6.17;100.00
6853;BME280;3465;42.144;24.722;2023-02-10T05:27:38;141369.22;;;-6.35;100.00
6853;BME280;3465;42.144;24.722;2023-02-10T05:30:05;141386.47;;;-6.28;100.00
6853;BME280;3465;42.144;24.722;2023-02-10T05:32:32;141364.28;;;-6.37;100.00
6853;BME280;3465;42.144;24.722;2023-02-10T05:34:58;141359.38;;;-6.39;100.00
6853;BME280;3465;42.144;24.722;2023-02-10T05:37:23;141352.00;;;-6.42;100.00
6853;BME280;3465;42.144;24.722;2023-02-10T05:39:49;141334.72;;;-6.49;100.00
6853;BME280;3465;42.144;24.722;2023-02-10T05:42:14;141329.78;;;-6.51;100.00
6853;BME280;3465;42.144;24.722;2023-02-10T05:44:40;141305.16;;;-6.61;100.00
6853;BME280;3465;42.144;24.722;2023-02-10T05:47:05;141302.69;;;-6.62;100.00
6853;BME280;3465;42.144;24.722;2023-02-10T05:49:31;141305.16;;;-6.61;100.00
6853;BME280;3465;42.144;24.722;2023-02-10T05:51:56;141308.84;;;-6.60;100.00
6853;BME280;3465;42.144;24.722;2023-02-10T05:54:21;141315.03;;;-6.57;100.00
6853;BME280;3465;42.144;24.722;2023-02-10T05:56:48;141312.56;;;-6.58;100.00
6853;BME280;3465;42.144;24.722;2023-02-10T05:59:15;141295.31;;;-6.65;100.00
6853;BME280;3465;42.144;24.722;2023-02-10T06:01:41;141331.03;;;-6.51;100.00
6853;BME280;3465;42.144;24.722;2023-02-10T06:04:07;141332.28;;;-6.50;100.00
6853;BME280;3465;42.144;24.722;2023-02-10T06:06:32;141337.19;;;-6.48;100.00
6853;BME280;3465;42.144;24.722;2023-02-10T06:08:57;141237.44;;;-6.89;100.00
6853;BME280;3465;42.144;24.722;2023-02-10T06:11:23;141339.66;;;-6.47;100.00
6853;BME280;3465;42.144;24.722;2023-02-10T06:13:48;141419.72;;;-6.15;100.00
6853;BME280;3465;42.144;24.722;2023-02-10T06:16:13;141598.44;;;-5.42;100.00
6853;BME280;3465;42.144;24.722;2023-02-10T06:18:39;141798.31;;;-4.61;100.00
6853;BME280;3465;42.144;24.722;2023-02-10T06:21:04;141952.66;;;-3.98;100.00
6853;BME280;3465;42.144;24.722;2023-02-10T06:23:30;142219.59;;;-2.89;96.53
6853;BME280;3465;42.144;24.722;2023-02-10T06:25:55;142410.09;;;-2.12;87.85
6853;BME280;3465;42.144;24.722;2023-02-10T06:28:26;142381.63;;;-2.24;81.90
6853;BME280;3465;42.144;24.722;2023-02-10T06:30:52;142212.19;;;-2.92;82.20
6853;BME280;3465;42.144;24.722;2023-02-10T06:33:18;142087.31;;;-3.43;83.92
6853;BME280;3465;42.144;24.722;2023-02-10T06:35:44;141978.63;;;-3.87;86.43
6853;BME280;3465;42.144;24.722;2023-02-10T06:38:09;141884.78;;;-4.25;89.97
6853;BME280;3465;42.144;24.722;2023-02-10T06:40:35;141805.75;;;-4.58;93.88
6853;BME280;3465;42.144;24.722;2023-02-10T06:43:00;141827.97;;;-4.49;95.99
6853;BME280;3465;42.144;24.722;2023-02-10T06:45:26;142044.06;;;-3.61;97.31
6853;BME280;3465;42.144;24.722;2023-02-10T06:47:52;142327.22;;;-2.46;88.31
6853;BME280;3465;42.144;24.722;2023-02-10T06:50:17;142798.97;;;-0.55;82.88
6853;BME280;3465;42.144;24.722;2023-02-10T06:52:43;143184.66;;;1.01;70.85
6853;BME280;3465;42.144;24.722;2023-02-10T06:55:09;143583.41;;;2.62;63.29
6853;BME280;3465;42.144;24.722;2023-02-10T06:57:36;143850.84;;;3.70;55.95
6853;BME280;3465;42.144;24.722;2023-02-10T07:00:05;144092.34;;;4.68;53.81
6853;BME280;3465;42.144;24.722;2023-02-10T07:02:33;144357.81;;;5.74;49.83
6853;BME280;3465;42.144;24.722;2023-02-10T07:04:58;144562.41;;;6.57;46.51
6853;BME280;3465;42.144;24.722;2023-02-10T07:07:23;144671.00;;;7.00;44.19
6853;BME280;3465;42.144;24.722;2023-02-10T07:09:49;144779.63;;;7.44;43.13
6853;BME280;3465;42.144;24.722;2023-02-10T07:12:18;144593.63;;;6.69;41.68
6853;BME280;3465;42.144;24.722;2023-02-10T07:14:44;144700.97;;;7.12;41.80
6853;BME280;3465;42.144;24.722;2023-02-10T07:17:10;144631.03;;;6.84;41.75
6853;BME280;3465;42.144;24.722;2023-02-10T07:19:35;144873.31;;;7.82;40.53
6853;BME280;3465;42.144;24.722;2023-02-10T07:22:00;145114.53;;;8.79;37.96
6853;BME280;3465;42.144;24.722;2023-02-10T07:24:30;145183.31;;;9.06;36.39
6853;BME280;3465;42.144;24.722;2023-02-10T07:26:55;145058.28;;;8.56;36.50
6853;BME280;3465;42.144;24.722;2023-02-10T07:29:21;144994.53;;;8.30;36.77
6853;BME280;3465;42.144;24.722;2023-02-10T07:31:46;144995.78;;;8.31;36.92
6853;BME280;3465;42.144;24.722;2023-02-10T07:34:12;145240.88;;;9.29;35.64
6853;BME280;3465;42.144;24.722;2023-02-10T07:36:37;145253.38;;;9.34;35.40
6853;BME280;3465;42.144;24.722;2023-02-10T07:39:02;145328.44;;;9.64;35.11
6853;BME280;3465;42.144;24.722;2023-02-10T07:41:28;145556.31;;;10.56;33.66
6853;BME280;3465;42.144;24.722;2023-02-10T07:43:53;145600.13;;;10.73;33.47
6853;BME280;3465;42.144;24.722;2023-02-10T07:46:19;145778.06;;;11.44;32.23
6853;BME280;3465;42.144;24.722;2023-02-10T07:48:44;145799.31;;;11.53;32.24
6853;BME280;3465;42.144;24.722;2023-02-10T07:51:09;145816.91;;;11.60;31.63
6853;BME280;3465;42.144;24.722;2023-02-10T07:53:35;145908.44;;;11.97;31.26
6853;BME280;3465;42.144;24.722;2023-02-10T07:56:03;146111.66;;;12.78;30.80
6853;BME280;3465;42.144;24.722;2023-02-10T07:58:28;146225.91;;;13.24;29.96
6853;BME280;3465;42.144;24.722;2023-02-10T08:00:55;146272.38;;;13.42;29.28
6853;BME280;3465;42.144;24.722;2023-02-10T08:03:20;146046.41;;;12.52;29.65
6853;BME280;3465;42.144;24.722;2023-02-10T08:05:46;145776.78;;;11.44;31.06
6853;BME280;3465;42.144;24.722;2023-02-10T08:08:14;145923.47;;;12.03;30.53
6853;BME280;3465;42.144;24.722;2023-02-10T08:10:40;145496.19;;;10.32;31.86
6853;BME280;3465;42.144;24.722;2023-02-10T08:13:06;145073.31;;;8.62;34.97
6853;BME280;3465;42.144;24.722;2023-02-10T08:15:32;144686.00;;;7.06;37.63
6853;BME280;3465;42.144;24.722;2023-02-10T08:17:59;144264.31;;;5.37;40.31
6853;BME280;3465;42.144;24.722;2023-02-10T08:20:25;143960.34;;;4.14;43.21
6853;BME280;3465;42.144;24.722;2023-02-10T08:22:54;143731.41;;;3.22;46.47
6853;BME280;3465;42.144;24.722;2023-02-10T08:25:20;143585.88;;;2.63;48.37
6853;BME280;3465;42.144;24.722;2023-02-10T08:27:45;143492.69;;;2.26;50.41
6853;BME280;3465;42.144;24.722;2023-02-10T08:30:11;143501.41;;;2.29;50.30
6853;BME280;3465;42.144;24.722;2023-02-10T08:32:37;143460.38;;;2.13;51.06
6853;BME280;3465;42.144;24.722;2023-02-10T08:35:03;143534.94;;;2.43;51.62
6853;BME280;3465;42.144;24.722;2023-02-10T08:37:28;143531.19;;;2.41;51.12
6853;BME280;3465;42.144;24.722;2023-02-10T08:39:54;143543.63;;;2.46;51.58
6853;BME280;3465;42.144;24.722;2023-02-10T08:42:19;143579.69;;;2.61;51.51
6853;BME280;3465;42.144;24.722;2023-02-10T08:44:44;143592.13;;;2.66;51.56
6853;BME280;3465;42.144;24.722;2023-02-10T08:47:10;143676.69;;;3.00;50.42
6853;BME280;3465;42.144;24.722;2023-02-10T08:49:38;143635.63;;;2.83;49.49
6853;BME280;3465;42.144;24.722;2023-02-10T08:52:04;143684.16;;;3.03;49.46
6853;BME280;3465;42.144;24.722;2023-02-10T08:54:29;143848.38;;;3.69;48.54
6853;BME280;3465;42.144;24.722;2023-02-10T08:56:55;144163.38;;;4.96;44.83
6853;BME280;3465;42.144;24.722;2023-02-10T08:59:20;144326.66;;;5.62;43.77
6853;BME280;3465;42.144;24.722;2023-02-10T09:01:46;144663.50;;;6.97;40.24
6853;BME280;3465;42.144;24.722;2023-02-10T09:04:12;144799.59;;;7.52;38.54
6853;BME280;3465;42.144;24.722;2023-02-10T09:06:39;145074.53;;;8.62;36.89
6853;BME280;3465;42.144;24.722;2023-02-10T09:09:09;145325.94;;;9.63;35.16
6853;BME280;3465;42.144;24.722;2023-02-10T09:11:35;145375.97;;;9.83;34.41
6853;BME280;3465;42.144;24.722;2023-02-10T09:14:00;145603.88;;;10.75;33.68
6853;BME280;3465;42.144;24.722;2023-02-10T09:16:26;145799.31;;;11.53;32.95
6853;BME280;3465;42.144;24.722;2023-02-10T09:18:52;145966.16;;;12.20;30.63
6853;BME280;3465;42.144;24.722;2023-02-10T09:21:18;146071.53;;;12.62;30.13
6853;BME280;3465;42.144;24.722;2023-02-10T09:23:43;146218.38;;;13.21;29.86
6853;BME280;3465;42.144;24.722;2023-02-10T09:26:09;146273.59;;;13.43;29.04
6853;BME280;3465;42.144;24.722;2023-02-10T09:28:34;146391.63;;;13.90;28.33
6853;BME280;3465;42.144;24.722;2023-02-10T09:31:00;146353.94;;;13.75;28.01
6853;BME280;3465;42.144;24.722;2023-02-10T09:33:25;146519.81;;;14.41;27.93
6853;BME280;3465;42.144;24.722;2023-02-10T09:35:50;146627.88;;;14.84;27.05
6853;BME280;3465;42.144;24.722;2023-02-10T09:38:16;146426.78;;;14.04;27.15
6853;BME280;3465;42.144;24.722;2023-02-10T09:46:16;145971.19;;;12.22;29.00
6853;BME280;3465;42.144;24.722;2023-02-10T09:49:15;145656.50;;;10.96;30.17
6853;BME280;3465;42.144;24.722;2023-02-10T09:54:32;145768.00;;;11.40;30.81
6853;BME280;3465;42.144;24.722;2023-02-10T09:57:35;146204.53;;;13.15;28.63
6853;BME280;3465;42.144;24.722;2023-02-10T10:00:04;146380.34;;;13.85;27.87
6853;BME280;3465;42.144;24.722;2023-02-10T10:02:49;146508.50;;;14.37;26.93
6853;BME280;3465;42.144;24.722;2023-02-10T10:05:38;146778.81;;;15.44;25.80
6853;BME280;3465;42.144;24.722;2023-02-10T10:08:24;146648.00;;;14.92;25.87
6853;BME280;3465;42.144;24.722;2023-02-10T10:10:51;146695.75;;;15.11;25.92
6853;BME280;3465;42.144;24.722;2023-02-10T10:13:27;146817.78;;;15.60;25.08
6853;BME280;3465;42.144;24.722;2023-02-10T10:21:32;146920.91;;;16.01;24.26
6853;BME280;3465;42.144;24.722;2023-02-10T10:24:25;146870.63;;;15.81;23.64
6853;BME280;3465;42.144;24.722;2023-02-10T10:34:39;146815.28;;;15.59;24.79
6853;BME280;3465;42.144;24.722;2023-02-10T10:37:14;146717.13;;;15.20;24.96
6853;BME280;3465;42.144;24.722;2023-02-10T10:39:44;146648.00;;;14.92;25.52
6853;BME280;3465;42.144;24.722;2023-02-10T10:44:50;146702.06;;;15.14;25.31
6853;BME280;3465;42.144;24.722;2023-02-10T10:47:38;146914.66;;;15.99;23.94
6853;BME280;3465;42.144;24.722;2023-02-10T10:50:05;147000.22;;;16.33;23.65
6853;BME280;3465;42.144;24.722;2023-02-10T10:52:33;146869.34;;;15.81;23.97
6853;BME280;3465;42.144;24.722;2023-02-10T10:55:05;146894.53;;;15.91;24.11
6853;BME280;3465;42.144;24.722;2023-02-10T10:57:32;146819.06;;;15.60;24.37
6853;BME280;3465;42.144;24.722;2023-02-10T11:00:05;146593.97;;;14.71;25.16
6853;BME280;3465;42.144;24.722;2023-02-10T11:02:32;146495.94;;;14.31;25.03
6853;BME280;3465;42.144;24.722;2023-02-10T11:05:05;146433.09;;;14.06;25.91
6853;BME280;3465;42.144;24.722;2023-02-10T11:07:35;146550.00;;;14.53;25.19
6853;BME280;3465;42.144;24.722;2023-02-10T11:10:02;146610.31;;;14.77;24.93
6853;BME280;3465;42.144;24.722;2023-02-10T11:12:32;146723.41;;;15.22;24.34
6853;BME280;3465;42.144;24.722;2023-02-10T11:14:59;146675.63;;;15.03;24.22
6853;BME280;3465;42.144;24.722;2023-02-10T11:17:40;146759.88;;;15.37;23.83
6853;BME280;3465;42.144;24.722;2023-02-10T11:22:37;146566.28;;;14.60;25.01
6853;BME280;3465;42.144;24.722;2023-02-10T11:27:53;146219.63;;;13.21;26.57
6853;BME280;3465;42.144;24.722;2023-02-10T11:30:29;146376.56;;;13.84;26.06
6853;BME280;3465;42.144;24.722;2023-02-10T11:32:55;146193.25;;;13.11;26.35
6853;BME280;3465;42.144;24.722;2023-02-10T11:35:22;145867.09;;;11.80;27.58
6853;BME280;3465;42.144;24.722;2023-02-10T11:37:55;146025.09;;;12.43;27.53
6853;BME280;3465;42.144;24.722;2023-02-10T11:43:14;146074.00;;;12.63;27.32
6853;BME280;3465;42.144;24.722;2023-02-10T11:45:54;146130.47;;;12.85;26.61
6853;BME280;3465;42.144;24.722;2023-02-10T11:48:25;146199.56;;;13.13;26.96
6853;BME280;3465;42.144;24.722;2023-02-10T11:53:36;145998.75;;;12.33;26.61
6853;BME280;3465;42.144;24.722;2023-02-10T11:59:17;146096.56;;;12.72;27.21
6853;BME280;3465;42.144;24.722;2023-02-10T12:01:53;146179.47;;;13.05;26.31
6853;BME280;3465;42.144;24.722;2023-02-10T12:21:08;145503.69;;;10.35;29.53
6853;BME280;3465;42.144;24.722;2023-02-10T12:26:42;145735.41;;;11.27;27.91
6853;BME280;3465;42.144;24.722;2023-02-10T12:39:48;145726.69;;;11.24;28.39
6853;BME280;3465;42.144;24.722;2023-02-10T12:45:09;145386.00;;;9.87;29.19
6853;BME280;3465;42.144;24.722;2023-02-10T12:53:48;145075.78;;;8.63;30.80
6853;BME280;3465;42.144;24.722;2023-02-10T12:56:26;145055.78;;;8.55;30.96
6853;BME280;3465;42.144;24.722;2023-02-10T12:59:04;144998.28;;;8.32;31.06
6853;BME280;3465;42.144;24.722;2023-02-10T13:01:38;144989.56;;;8.28;32.09
6853;BME280;3465;42.144;24.722;2023-02-10T13:04:13;144993.31;;;8.30;32.01
6853;BME280;3465;42.144;24.722;2023-02-10T13:06:44;145003.28;;;8.34;32.16
6853;BME280;3465;42.144;24.722;2023-02-10T13:12:22;144808.34;;;7.56;32.15
6853;BME280;3465;42.144;24.722;2023-02-10T13:14:53;144768.38;;;7.40;31.91
6853;BME280;3465;42.144;24.722;2023-02-10T13:17:20;144709.72;;;7.16;32.34
6853;BME280;3465;42.144;24.722;2023-02-10T13:20:00;144790.84;;;7.49;32.03
6853;BME280;3465;42.144;24.722;2023-02-10T13:30:23;144727.16;;;7.23;32.80
6853;BME280;3465;42.144;24.722;2023-02-10T13:33:17;144662.25;;;6.97;32.17
6853;BME280;3465;42.144;24.722;2023-02-10T13:35:46;144657.28;;;6.95;32.37
6853;BME280;3465;42.144;24.722;2023-02-10T13:38:17;144676.00;;;7.02;32.59
6853;BME280;3465;42.144;24.722;2023-02-10T13:40:49;144597.38;;;6.71;33.19
6853;BME280;3465;42.144;24.722;2023-02-10T13:43:31;144629.84;;;6.84;33.28
6853;BME280;3465;42.144;24.722;2023-02-10T13:45:59;144599.84;;;6.72;33.40
6853;BME280;3465;42.144;24.722;2023-02-10T13:48:29;144574.88;;;6.62;33.90
6853;BME280;3465;42.144;24.722;2023-02-10T13:50:59;144492.56;;;6.29;33.78
6853;BME280;3465;42.144;24.722;2023-02-10T13:53:38;144597.38;;;6.71;34.03
6853;BME280;3465;42.144;24.722;2023-02-10T13:59:03;144688.47;;;7.07;33.22
6853;BME280;3465;42.144;24.722;2023-02-10T14:01:41;144750.88;;;7.32;33.32
6853;BME280;3465;42.144;24.722;2023-02-10T14:06:47;144795.84;;;7.51;32.77
6853;BME280;3465;42.144;24.722;2023-02-10T14:11:50;144700.97;;;7.12;33.02
6853;BME280;3465;42.144;24.722;2023-02-10T14:14:20;144686.00;;;7.06;33.19
6853;BME280;3465;42.144;24.722;2023-02-10T14:16:50;144666.03;;;6.98;33.31
6853;BME280;3465;42.144;24.722;2023-02-10T14:19:28;144644.78;;;6.90;33.74
6853;BME280;3465;42.144;24.722;2023-02-10T14:21:56;144666.03;;;6.98;33.54
6853;BME280;3465;42.144;24.722;2023-02-10T14:24:26;144647.28;;;6.91;33.49
6853;BME280;3465;42.144;24.722;2023-02-10T14:26:55;144656.03;;;6.94;33.64
6853;BME280;3465;42.144;24.722;2023-02-10T14:29:22;144638.53;;;6.87;33.76
6853;BME280;3465;42.144;24.722;2023-02-10T14:31:58;144678.47;;;7.03;33.48
6853;BME280;3465;42.144;24.722;2023-02-10T14:34:32;144688.47;;;7.07;33.35
6853;BME280;3465;42.144;24.722;2023-02-10T14:37:18;144693.47;;;7.09;33.17
6853;BME280;3465;42.144;24.722;2023-02-10T14:42:17;144735.91;;;7.26;32.84
6853;BME280;3465;42.144;24.722;2023-02-10T14:44:48;144698.44;;;7.11;32.64
6853;BME280;3465;42.144;24.722;2023-02-10T14:47:24;144654.75;;;6.94;33.70
6853;BME280;3465;42.144;24.722;2023-02-10T14:49:54;144618.56;;;6.79;33.72
6853;BME280;3465;42.144;24.722;2023-02-10T14:52:45;144544.97;;;6.50;34.41
6853;BME280;3465;42.144;24.722;2023-02-10T14:55:26;144536.22;;;6.46;34.46
6853;BME280;3465;42.144;24.722;2023-02-10T14:57:52;144491.28;;;6.28;34.46
6853;BME280;3465;42.144;24.722;2023-02-10T15:00:20;144506.31;;;6.34;34.61
6853;BME280;3465;42.144;24.722;2023-02-10T15:02:48;144442.63;;;6.09;34.37
6853;BME280;3465;42.144;24.722;2023-02-10T15:05:18;144423.94;;;6.01;35.12